KGUP/GUP METAR and TAF weather

Enter ICAO airport designator
Station Type Date Time Source
KGUP METAR 2020/04/05 11:53 UTC NOAA

KGUP 051153Z AUTO 00000KT 10SM CLR 00/M08 A2996 RMK AO2 SLP079 T00001083 10083 21028 53004


Station Type Date Time Source
KGUP Decoded METAR 2020/04/05 11:53 UTC NOAA

GALLUP MUNICIPAL AIRPORT, NM, United States (KGUP) 35-31N 108-47W 1971M
Apr 05, 2020 - 07:53 AM EDT / 2020.04.05 1153 UTC
Wind: Calm:0
Visibility: 10 mile(s):0
Sky conditions: clear
Temperature: 32.0 F (0.0 C)
Dew Point: 17.1 F (-8.3 C)
Relative Humidity: 53%
Pressure (altimeter): 29.96 in. Hg (1014 hPa)
Pressure tendency: 0.01 inches (0.4 hPa) higher than three hours ago
ob: KGUP 051153Z AUTO 00000KT 10SM CLR 00/M08 A2996 RMK AO2 SLP079 T00001083 10083 21028 53004
cycle: 12

Station Type Date Time Source
KGUP TAF 2020/04/05 12:22 UTC NOAA

TAF KGUP 051120Z 0512/0612 VRB06KT P6SM SKC
FM051800 23015G25KT P6SM SKC
TEMPO 0522/0601 23020G30KT
FM060200 22008KT P6SM SKC

Example: see airport list